createdAt,value
2022-09-18T00:00:45.242Z,51.291199
2022-09-18T00:01:45.220Z,51.291271
2022-09-18T00:02:45.263Z,51.291367
2022-09-18T00:03:45.181Z,51.291210
2022-09-18T00:04:45.153Z,51.291210
2022-09-18T00:05:45.155Z,51.290928
2022-09-18T00:06:45.141Z,51.291142
2022-09-18T00:07:45.106Z,51.291172
2022-09-18T00:08:45.110Z,51.291210
2022-09-18T00:09:45.092Z,51.291122
2022-09-18T00:10:45.088Z,51.291271
2022-09-18T00:11:45.105Z,51.290745
2022-09-18T00:12:45.051Z,51.291264
2022-09-18T00:13:45.156Z,51.291191
2022-09-18T00:14:45.047Z,51.291111
2022-09-18T00:15:45.059Z,51.291111
2022-09-18T00:16:45.045Z,51.291080
2022-09-18T00:17:45.043Z,51.291275
2022-09-18T00:18:44.994Z,51.291534
2022-09-18T00:19:44.990Z,51.291203
2022-09-18T00:20:44.990Z,51.291241
2022-09-18T00:21:44.992Z,51.292095
2022-09-18T00:22:44.950Z,51.291466
2022-09-18T00:23:44.948Z,51.291512
2022-09-18T00:24:44.975Z,51.291187
2022-09-18T00:25:44.926Z,51.291199
2022-09-18T00:26:44.958Z,51.290928
2022-09-18T00:27:44.907Z,51.291035
2022-09-18T00:28:44.911Z,51.291214
2022-09-18T00:29:44.968Z,51.291359
2022-09-18T00:30:44.872Z,51.291225
2022-09-18T00:31:44.930Z,51.291260
2022-09-18T00:32:44.873Z,51.291237
2022-09-18T00:33:44.828Z,51.291191
2022-09-18T00:34:44.819Z,51.291138
2022-09-18T00:35:44.825Z,51.291191
2022-09-18T00:36:44.807Z,51.291260
2022-09-18T00:37:44.824Z,51.291256
2022-09-18T00:38:44.775Z,51.291260
2022-09-18T00:39:44.760Z,51.291161
2022-09-18T00:40:44.795Z,51.291031
2022-09-18T00:41:44.754Z,51.291050
2022-09-18T00:42:44.750Z,51.291161
2022-09-18T00:43:44.742Z,51.291187
2022-09-18T00:44:44.711Z,51.291157
2022-09-18T00:45:44.779Z,51.291275
2022-09-18T00:46:44.718Z,51.291248
2022-09-18T00:47:44.727Z,51.291195
2022-09-18T00:48:44.688Z,51.291229
2022-09-18T00:49:44.657Z,51.291199
2022-09-18T00:50:44.630Z,51.291225
2022-09-18T00:51:44.641Z,51.291016
2022-09-18T00:52:44.680Z,51.291130
2022-09-18T00:53:44.625Z,51.291332
2022-09-18T00:54:44.776Z,51.291149
2022-09-18T00:55:44.592Z,51.291161
2022-09-18T00:56:44.572Z,51.291153
2022-09-18T00:57:44.574Z,51.291191
2022-09-18T00:58:44.579Z,51.291157
2022-09-18T00:59:44.560Z,51.291088
2022-09-18T01:00:44.668Z,51.291145
2022-09-18T01:01:44.675Z,51.291107
2022-09-18T01:02:44.539Z,51.291206
2022-09-18T01:03:44.534Z,51.291294
2022-09-18T01:04:44.494Z,51.291164
2022-09-18T01:05:44.491Z,51.291245
2022-09-18T01:06:44.479Z,51.291203
2022-09-18T01:07:44.482Z,51.291225
2022-09-18T01:08:44.490Z,51.291172
2022-09-18T01:09:44.439Z,51.291172
2022-09-18T01:10:44.435Z,51.291210
2022-09-18T01:11:44.417Z,51.291153
2022-09-18T01:12:44.403Z,51.291225
2022-09-18T01:13:44.438Z,51.291275
2022-09-18T01:14:44.405Z,51.291172
2022-09-18T01:15:44.425Z,51.291187
2022-09-18T01:16:44.361Z,51.291088
2022-09-18T01:17:44.408Z,51.291248
2022-09-18T01:18:44.371Z,51.291370
2022-09-18T01:19:44.351Z,51.291126
2022-09-18T01:20:44.310Z,51.291138
2022-09-18T01:21:44.312Z,51.291023
2022-09-18T01:22:44.294Z,51.291035
2022-09-18T01:23:44.302Z,51.291157
2022-09-18T01:24:44.292Z,51.291206
2022-09-18T01:25:44.272Z,51.291222
2022-09-18T01:26:44.250Z,51.291206
2022-09-18T01:27:44.254Z,51.291260
2022-09-18T01:28:44.236Z,51.291473
2022-09-18T01:29:44.245Z,51.291592
2022-09-18T01:30:44.222Z,51.291969
2022-09-18T01:31:44.239Z,51.292229
2022-09-18T01:32:44.227Z,51.292534
2022-09-18T01:33:44.243Z,51.293041
2022-09-18T01:34:44.206Z,51.291744
2022-09-18T01:35:44.159Z,51.292019
2022-09-18T01:36:44.149Z,51.292152
2022-09-18T01:37:44.176Z,51.291874
2022-09-18T01:38:44.123Z,51.291706
2022-09-18T01:39:44.137Z,51.291313
2022-09-18T01:40:44.117Z,51.291149
2022-09-18T01:41:44.089Z,51.291241
2022-09-18T01:42:44.108Z,51.291191
2022-09-18T01:43:44.054Z,51.291161
2022-09-18T01:44:44.064Z,51.291237
2022-09-18T01:45:44.084Z,51.291206
2022-09-18T01:46:44.061Z,51.291172
2022-09-18T01:47:44.031Z,51.291260
2022-09-18T01:48:45.093Z,51.291214
2022-09-18T01:49:44.083Z,51.291187
2022-09-18T01:50:44.047Z,51.291317
2022-09-18T01:51:43.980Z,51.291260
2022-09-18T01:52:43.956Z,51.291161
2022-09-18T01:53:43.954Z,51.291340
2022-09-18T01:54:44.948Z,51.291149
2022-09-18T01:55:43.984Z,51.291294
2022-09-18T01:56:43.942Z,51.291245
2022-09-18T01:57:43.937Z,51.291126
2022-09-18T01:58:43.915Z,51.291222
2022-09-18T01:59:43.906Z,51.291168
2022-09-18T02:00:43.919Z,51.291237
2022-09-18T02:01:44.104Z,51.291237
2022-09-18T02:02:43.932Z,51.290981
2022-09-18T02:03:43.876Z,51.291145
2022-09-18T02:04:43.854Z,51.291126
2022-09-18T02:05:44.021Z,51.291367
2022-09-18T02:06:43.849Z,51.291309
2022-09-18T02:07:43.798Z,51.291302
2022-09-18T02:08:43.789Z,51.291199
2022-09-18T02:09:43.774Z,51.291359
2022-09-18T02:10:43.776Z,51.291348
2022-09-18T02:11:43.782Z,51.291122
2022-09-18T02:12:44.116Z,51.291046
2022-09-18T02:13:43.713Z,51.291187
2022-09-18T02:14:43.727Z,51.291203
2022-09-18T02:15:43.734Z,51.291042
2022-09-18T02:16:43.735Z,51.291191
2022-09-18T02:17:43.690Z,51.291180
2022-09-18T02:18:43.705Z,51.291214
2022-09-18T02:19:43.650Z,51.291203
2022-09-18T02:20:43.653Z,51.291328
2022-09-18T02:21:44.034Z,51.291252
2022-09-18T02:22:43.650Z,51.291294
2022-09-18T02:23:43.622Z,51.291386
2022-09-18T02:24:46.227Z,51.291142
2022-09-18T02:25:43.605Z,51.291298
2022-09-18T02:26:43.655Z,51.291260
2022-09-18T02:27:43.583Z,51.291302
2022-09-18T02:28:43.575Z,51.291145
2022-09-18T02:29:43.573Z,51.291378
2022-09-18T02:30:43.557Z,51.291298
2022-09-18T02:31:43.623Z,51.291275
2022-09-18T02:32:43.548Z,51.291279
2022-09-18T02:33:43.498Z,51.291256
2022-09-18T02:34:43.544Z,51.291245
2022-09-18T02:35:43.492Z,51.291241
2022-09-18T02:36:43.509Z,51.291355
2022-09-18T02:37:43.567Z,51.291225
2022-09-18T02:38:43.465Z,51.291168
2022-09-18T02:39:43.469Z,51.291233
2022-09-18T02:40:43.436Z,51.291168
2022-09-18T02:41:43.449Z,51.291302
2022-09-18T02:42:43.456Z,51.291389
2022-09-18T02:43:43.418Z,51.291363
2022-09-18T02:44:43.421Z,51.291355
2022-09-18T02:45:43.391Z,51.291836
2022-09-18T02:46:43.451Z,51.291344
2022-09-18T02:47:43.417Z,51.291245
2022-09-18T02:48:43.356Z,51.291245
2022-09-18T02:49:43.353Z,51.291245
2022-09-18T02:50:43.329Z,51.291245
2022-09-18T02:51:43.347Z,51.291317
2022-09-18T02:52:43.344Z,51.291046
2022-09-18T02:53:44.382Z,51.291058
2022-09-18T02:54:43.292Z,51.291206
2022-09-18T02:55:43.265Z,51.291183
2022-09-18T02:56:43.294Z,51.291203
2022-09-18T02:57:43.283Z,51.291214
2022-09-18T02:58:43.254Z,51.291138
2022-09-18T02:59:43.235Z,51.291164
2022-09-18T03:00:43.227Z,51.291252
2022-09-18T03:01:43.356Z,51.291161
2022-09-18T03:02:43.252Z,51.291279
2022-09-18T03:03:43.212Z,51.291183
2022-09-18T03:04:43.181Z,51.291477
2022-09-18T03:05:43.178Z,51.291107
2022-09-18T03:06:43.164Z,51.291058
2022-09-18T03:07:43.804Z,51.291046
2022-09-18T03:08:43.145Z,51.291012
2022-09-18T03:09:43.205Z,51.291122
2022-09-18T03:10:43.122Z,51.291069
2022-09-18T03:11:43.099Z,51.291065
2022-09-18T03:12:43.106Z,51.291302
2022-09-18T03:13:43.077Z,51.291225
2022-09-18T03:14:43.059Z,51.291241
2022-09-18T03:15:43.121Z,51.291176
2022-09-18T03:16:43.618Z,51.291256
2022-09-18T03:17:43.056Z,51.291054
2022-09-18T03:18:43.000Z,51.291084
2022-09-18T03:19:43.013Z,51.291206
2022-09-18T03:20:42.989Z,51.291168
2022-09-18T03:21:42.984Z,51.291164
2022-09-18T03:22:42.985Z,51.291168
2022-09-18T03:23:45.557Z,51.291431
2022-09-18T03:24:42.961Z,51.291210
2022-09-18T03:25:43.021Z,51.291279
2022-09-18T03:26:43.930Z,51.291176
2022-09-18T03:27:42.943Z,51.291142
2022-09-18T03:28:42.907Z,51.291203
2022-09-18T03:29:42.894Z,51.291180
2022-09-18T03:30:42.895Z,51.291145
2022-09-18T03:31:42.888Z,51.291172
2022-09-18T03:32:42.914Z,51.291134
2022-09-18T03:33:42.843Z,51.291073
2022-09-18T03:34:42.840Z,51.291138
2022-09-18T03:35:42.819Z,51.291164
2022-09-18T03:36:42.806Z,51.291149
2022-09-18T03:37:42.798Z,51.291180
2022-09-18T03:38:42.831Z,51.291172
2022-09-18T03:39:42.780Z,51.291130
2022-09-18T03:40:47.169Z,51.291206
2022-09-18T03:41:42.856Z,51.291214
2022-09-18T03:42:42.738Z,51.291229
2022-09-18T03:43:43.746Z,51.291210
2022-09-18T03:44:42.739Z,51.291180
2022-09-18T03:45:42.710Z,51.291214
2022-09-18T03:46:42.768Z,51.291088
2022-09-18T03:47:42.700Z,51.291100
2022-09-18T03:48:42.731Z,51.291206
2022-09-18T03:49:42.669Z,51.291107
2022-09-18T03:50:42.661Z,51.291077
2022-09-18T03:51:42.640Z,51.291119
2022-09-18T03:52:42.636Z,51.291168
2022-09-18T03:53:42.664Z,51.291206
2022-09-18T03:54:42.626Z,51.291203
2022-09-18T03:55:42.606Z,51.291161
2022-09-18T03:56:42.594Z,51.291206
2022-09-18T03:57:42.667Z,51.291256
2022-09-18T03:58:42.580Z,51.291218
2022-09-18T03:59:42.577Z,51.291191
2022-09-18T04:00:42.535Z,51.291233
2022-09-18T04:01:42.589Z,51.291245
2022-09-18T04:02:42.602Z,51.291206
2022-09-18T04:03:42.517Z,51.291187
2022-09-18T04:04:42.533Z,51.291183
2022-09-18T04:05:42.508Z,51.291153
2022-09-18T04:06:42.497Z,51.291168
2022-09-18T04:07:42.488Z,51.291180
2022-09-18T04:08:42.466Z,51.291176
2022-09-18T04:09:42.494Z,51.291172
2022-09-18T04:10:42.472Z,51.291103
2022-09-18T04:11:42.442Z,51.291134
2022-09-18T04:12:42.422Z,51.291122
2022-09-18T04:13:42.488Z,51.291164
2022-09-18T04:14:42.458Z,51.291157
2022-09-18T04:15:42.413Z,51.291187
2022-09-18T04:16:42.385Z,51.291061
2022-09-18T04:17:42.400Z,51.291203
2022-09-18T04:18:42.353Z,51.291283
2022-09-18T04:19:42.345Z,51.291237
2022-09-18T04:20:42.345Z,51.291248
2022-09-18T04:21:42.314Z,51.291195
2022-09-18T04:22:42.305Z,51.291050
2022-09-18T04:23:42.307Z,51.291019
2022-09-18T04:24:42.278Z,51.291103
2022-09-18T04:25:42.297Z,51.291100
2022-09-18T04:26:42.259Z,51.291149
2022-09-18T04:27:42.271Z,51.291325
2022-09-18T04:28:42.233Z,51.291283
2022-09-18T04:29:42.293Z,51.291298
2022-09-18T04:30:42.240Z,51.291222
2022-09-18T04:31:42.294Z,51.291214
2022-09-18T04:32:42.210Z,51.291317
2022-09-18T04:33:42.168Z,51.291393
2022-09-18T04:34:42.178Z,51.291225
2022-09-18T04:35:42.198Z,51.291054
2022-09-18T04:36:42.173Z,51.291134
2022-09-18T04:37:42.161Z,51.291176
2022-09-18T04:38:42.148Z,51.291042
2022-09-18T04:39:42.155Z,51.291065
2022-09-18T04:40:42.247Z,51.290878
2022-09-18T04:41:42.109Z,51.290859
2022-09-18T04:42:42.075Z,51.291092
2022-09-18T04:43:42.070Z,51.291088
2022-09-18T04:44:42.067Z,51.291424
2022-09-18T04:45:42.127Z,51.291454
2022-09-18T04:46:42.098Z,51.291454
2022-09-18T04:47:42.020Z,51.291306
2022-09-18T04:48:42.032Z,51.291187
2022-09-18T04:49:42.023Z,51.291206
2022-09-18T04:50:42.007Z,51.291386
2022-09-18T04:51:43.370Z,51.291386
2022-09-18T04:52:41.977Z,51.291386
2022-09-18T04:53:41.980Z,51.291336
2022-09-18T04:54:41.982Z,51.291248
2022-09-18T04:55:41.949Z,51.291241
2022-09-18T04:56:41.967Z,51.291260
2022-09-18T04:57:41.928Z,51.291130
2022-09-18T04:58:41.911Z,51.291191
2022-09-18T04:59:41.888Z,51.291103
2022-09-18T05:00:42.086Z,51.291164
2022-09-18T05:01:42.009Z,51.291168
2022-09-18T05:02:41.892Z,51.291298
2022-09-18T05:03:41.870Z,51.291286
2022-09-18T05:04:41.836Z,51.291206
2022-09-18T05:05:41.839Z,51.291153
2022-09-18T05:06:41.891Z,51.291145
2022-09-18T05:07:41.814Z,51.291206
2022-09-18T05:08:41.802Z,51.291294
2022-09-18T05:09:41.945Z,51.291203
2022-09-18T05:10:41.758Z,51.291183
2022-09-18T05:11:41.782Z,51.291195
2022-09-18T05:12:41.772Z,51.291283
2022-09-18T05:13:41.739Z,51.291260
2022-09-18T05:14:41.740Z,51.291237
2022-09-18T05:15:41.773Z,51.291264
2022-09-18T05:16:41.731Z,51.291206
2022-09-18T05:17:41.801Z,51.291100
2022-09-18T05:18:41.690Z,51.291176
2022-09-18T05:19:41.691Z,51.291275
2022-09-18T05:20:41.678Z,51.291264
2022-09-18T05:21:41.657Z,51.291229
2022-09-18T05:22:41.684Z,51.291233
2022-09-18T05:23:41.761Z,51.291183
2022-09-18T05:24:41.630Z,51.291260
2022-09-18T05:25:42.606Z,51.291275
2022-09-18T05:26:41.608Z,51.291359
2022-09-18T05:27:41.643Z,51.291241
2022-09-18T05:28:41.579Z,51.291286
2022-09-18T05:29:41.581Z,51.291130
2022-09-18T05:30:41.546Z,51.291157
2022-09-18T05:31:41.652Z,51.291161
2022-09-18T05:32:41.543Z,51.291355
2022-09-18T05:33:41.626Z,51.291206
2022-09-18T05:34:41.529Z,51.291325
2022-09-18T05:35:41.502Z,51.291283
2022-09-18T05:36:41.499Z,51.291286
2022-09-18T05:37:41.507Z,51.291161
2022-09-18T05:38:41.485Z,51.291176
2022-09-18T05:39:41.444Z,51.291172
2022-09-18T05:40:41.479Z,51.290916
2022-09-18T05:41:41.466Z,51.290951
2022-09-18T05:42:41.412Z,51.291168
2022-09-18T05:43:41.501Z,51.291306
2022-09-18T05:44:41.402Z,51.291225
2022-09-18T05:45:41.389Z,51.291122
2022-09-18T05:46:41.458Z,51.291168
2022-09-18T05:47:41.363Z,51.291111
2022-09-18T05:48:42.414Z,51.291233
2022-09-18T05:49:41.416Z,51.291164
2022-09-18T05:50:41.344Z,51.291191
2022-09-18T05:51:41.326Z,51.291130
2022-09-18T05:52:41.308Z,51.291107
2022-09-18T05:53:41.339Z,51.291233
2022-09-18T05:54:41.336Z,51.291279
2022-09-18T05:55:41.267Z,51.291248
2022-09-18T05:56:41.279Z,51.291153
2022-09-18T05:57:41.250Z,51.291149
2022-09-18T05:58:41.265Z,51.290997
2022-09-18T05:59:41.277Z,51.291157
2022-09-18T06:00:41.219Z,51.291248
2022-09-18T06:01:44.928Z,51.291210
2022-09-18T06:02:41.278Z,51.291164
2022-09-18T06:03:41.206Z,51.291401
2022-09-18T06:04:41.188Z,51.291302
2022-09-18T06:05:41.242Z,51.291088
2022-09-18T06:06:41.154Z,51.291264
2022-09-18T06:07:41.134Z,51.291210
2022-09-18T06:08:41.130Z,51.291252
2022-09-18T06:09:41.144Z,51.291187
2022-09-18T06:10:41.432Z,51.291256
2022-09-18T06:11:42.115Z,51.291248
2022-09-18T06:12:41.085Z,51.291260
2022-09-18T06:13:41.066Z,51.291294
2022-09-18T06:14:41.104Z,51.291363
2022-09-18T06:15:41.053Z,51.291260
2022-09-18T06:16:42.572Z,51.291199
2022-09-18T06:17:41.033Z,51.291142
2022-09-18T06:18:41.007Z,51.291183
2022-09-18T06:19:41.041Z,51.290993
2022-09-18T06:20:40.996Z,51.291054
2022-09-18T06:21:41.051Z,51.291046
2022-09-18T06:22:40.961Z,51.291222
2022-09-18T06:23:40.999Z,51.291206
2022-09-18T06:24:40.961Z,51.291264
2022-09-18T06:25:40.932Z,51.291229
2022-09-18T06:26:40.933Z,51.291233
2022-09-18T06:27:40.906Z,51.291260
2022-09-18T06:28:40.896Z,51.291233
2022-09-18T06:29:40.892Z,51.291206
2022-09-18T06:30:40.893Z,51.291233
2022-09-18T06:31:40.957Z,51.291298
2022-09-18T06:32:40.864Z,51.291222
2022-09-18T06:33:40.915Z,51.291245
2022-09-18T06:34:40.832Z,51.291412
2022-09-18T06:35:40.837Z,51.291237
2022-09-18T06:36:40.806Z,51.291267
2022-09-18T06:37:40.861Z,51.291191
2022-09-18T06:38:41.793Z,51.291145
2022-09-18T06:39:40.766Z,51.291092
2022-09-18T06:40:40.845Z,51.291168
2022-09-18T06:41:40.758Z,51.291283
2022-09-18T06:42:45.263Z,51.291336
2022-09-18T06:43:41.725Z,51.291222
2022-09-18T06:44:40.710Z,51.291161
2022-09-18T06:45:40.744Z,51.291164
2022-09-18T06:46:40.733Z,51.291195
2022-09-18T06:47:40.673Z,51.291222
2022-09-18T06:48:40.659Z,51.291256
2022-09-18T06:49:41.655Z,51.291363
2022-09-18T06:50:40.629Z,51.291386
2022-09-18T06:51:40.645Z,51.291428
2022-09-18T06:52:40.616Z,51.291317
2022-09-18T06:53:40.684Z,51.291115
2022-09-18T06:54:40.592Z,51.291542
2022-09-18T06:55:41.579Z,51.291332
2022-09-18T06:56:41.262Z,51.291279
2022-09-18T06:57:40.563Z,51.291134
2022-09-18T06:58:40.556Z,51.291622
2022-09-18T06:59:40.547Z,51.291794
2022-09-18T07:00:40.554Z,51.291676
2022-09-18T07:01:40.594Z,51.291454
2022-09-18T07:02:40.495Z,51.291424
2022-09-18T07:03:40.491Z,51.291241
2022-09-18T07:04:40.488Z,51.291065
2022-09-18T07:05:41.084Z,51.291370
2022-09-18T07:06:40.469Z,51.291077
2022-09-18T07:07:40.452Z,51.291199
2022-09-18T07:08:40.445Z,51.291206
2022-09-18T07:09:40.517Z,51.291214
2022-09-18T07:10:40.437Z,51.291256
2022-09-18T07:11:40.425Z,51.291218
2022-09-18T07:12:40.398Z,51.291195
2022-09-18T07:13:40.383Z,51.291237
2022-09-18T07:14:40.377Z,51.291214
2022-09-18T07:15:40.374Z,51.291279
2022-09-18T07:16:40.415Z,51.291256
2022-09-18T07:17:40.333Z,51.291195
2022-09-18T07:18:40.336Z,51.291237
2022-09-18T07:19:40.316Z,51.291363
2022-09-18T07:20:40.304Z,51.291256
2022-09-18T07:21:40.329Z,51.291271
2022-09-18T07:22:44.908Z,51.291275
2022-09-18T07:23:40.312Z,51.291252
2022-09-18T07:24:40.253Z,51.291382
2022-09-18T07:25:40.334Z,51.291355
2022-09-18T07:26:40.247Z,51.291435
2022-09-18T07:27:40.233Z,51.291374
2022-09-18T07:28:40.228Z,51.291256
2022-09-18T07:29:40.208Z,51.291233
2022-09-18T07:30:40.209Z,51.291306
2022-09-18T07:31:40.234Z,51.291332
2022-09-18T07:32:40.197Z,51.291264
2022-09-18T07:33:40.158Z,51.291214
2022-09-18T07:34:40.151Z,51.291275
2022-09-18T07:35:40.150Z,51.291275
2022-09-18T07:36:40.126Z,51.291248
2022-09-18T07:37:40.154Z,51.291206
2022-09-18T07:38:40.114Z,51.291222
2022-09-18T07:39:40.085Z,51.291264
2022-09-18T07:40:40.188Z,51.291225
2022-09-18T07:41:40.149Z,51.291183
2022-09-18T07:42:40.100Z,51.291245
2022-09-18T07:43:40.043Z,51.291325
2022-09-18T07:44:40.029Z,51.291260
2022-09-18T07:45:40.024Z,51.291222
2022-09-18T07:46:40.093Z,51.291153
2022-09-18T07:47:40.005Z,51.291214
2022-09-18T07:48:40.005Z,51.291164
2022-09-18T07:49:39.980Z,51.291286
2022-09-18T07:50:39.954Z,51.291248
2022-09-18T07:51:39.955Z,51.291229
2022-09-18T07:52:39.934Z,51.291168
2022-09-18T07:53:39.953Z,51.291168
2022-09-18T07:54:39.911Z,51.291271
2022-09-18T07:55:39.907Z,51.291241
2022-09-18T07:56:43.571Z,51.291187
2022-09-18T07:57:40.969Z,51.291149
2022-09-18T07:58:39.922Z,51.291157
2022-09-18T07:59:39.848Z,51.291153
2022-09-18T08:00:39.868Z,51.291138
2022-09-18T08:01:39.913Z,51.291157
2022-09-18T08:02:39.923Z,51.291222
2022-09-18T08:03:41.549Z,51.291210
2022-09-18T08:04:39.814Z,51.291180
2022-09-18T08:05:39.799Z,51.291225
2022-09-18T08:06:39.770Z,51.291199
2022-09-18T08:07:39.776Z,51.291142
2022-09-18T08:08:39.768Z,51.291161
2022-09-18T08:09:39.740Z,51.291142
2022-09-18T08:10:39.836Z,51.291439
2022-09-18T08:11:39.736Z,51.291260
2022-09-18T08:12:39.715Z,51.291134
2022-09-18T08:13:39.832Z,51.291378
2022-09-18T08:14:39.691Z,51.291313
2022-09-18T08:15:39.686Z,51.291309
2022-09-18T08:16:39.777Z,51.291313
2022-09-18T08:17:39.651Z,51.291245
2022-09-18T08:18:39.697Z,51.291233
2022-09-18T08:19:39.634Z,51.291248
2022-09-18T08:20:39.623Z,51.291130
2022-09-18T08:21:39.616Z,51.290989
2022-09-18T08:22:39.604Z,51.291203
2022-09-18T08:23:39.582Z,51.291210
2022-09-18T08:24:39.597Z,51.291176
2022-09-18T08:25:39.584Z,51.291096
2022-09-18T08:26:39.560Z,51.291061
2022-09-18T08:27:39.544Z,51.291065
2022-09-18T08:28:39.542Z,51.291080
2022-09-18T08:29:39.623Z,51.291111
2022-09-18T08:30:39.498Z,51.291233
2022-09-18T08:31:39.575Z,51.291222
2022-09-18T08:32:39.478Z,51.291252
2022-09-18T08:33:39.465Z,51.291241
2022-09-18T08:34:39.482Z,51.291149
2022-09-18T08:35:39.437Z,51.291279
2022-09-18T08:36:39.429Z,51.291199
2022-09-18T08:37:39.428Z,51.291317
2022-09-18T08:38:39.410Z,51.291348
2022-09-18T08:39:39.430Z,51.291199
2022-09-18T08:40:39.488Z,51.291340
2022-09-18T08:41:39.376Z,51.291336
2022-09-18T08:42:39.371Z,51.291252
2022-09-18T08:43:39.364Z,51.291100
2022-09-18T08:44:39.353Z,51.291000
2022-09-18T08:45:39.428Z,51.291191
2022-09-18T08:46:39.345Z,51.291306
2022-09-18T08:47:39.309Z,51.291256
2022-09-18T08:48:39.305Z,51.291138
2022-09-18T08:49:39.298Z,51.291180
2022-09-18T08:50:39.269Z,51.291218
2022-09-18T08:51:39.256Z,51.291267
2022-09-18T08:52:39.245Z,51.291214
2022-09-18T08:53:39.232Z,51.291237
2022-09-18T08:54:39.265Z,51.291290
2022-09-18T08:55:39.357Z,51.291222
2022-09-18T08:56:39.209Z,51.291332
2022-09-18T08:57:39.192Z,51.291279
2022-09-18T08:58:39.180Z,51.291309
2022-09-18T08:59:39.204Z,51.291187
2022-09-18T09:00:39.214Z,51.291203
2022-09-18T09:01:39.243Z,51.291203
2022-09-18T09:02:39.150Z,51.291267
2022-09-18T09:03:39.130Z,51.291248
2022-09-18T09:04:39.193Z,51.291199
2022-09-18T09:05:39.125Z,51.291233
2022-09-18T09:06:39.080Z,51.291157
2022-09-18T09:07:39.093Z,51.291309
2022-09-18T09:08:39.065Z,51.291386
2022-09-18T09:09:39.046Z,51.291332
2022-09-18T09:10:39.066Z,51.291183
2022-09-18T09:11:39.016Z,51.291210
2022-09-18T09:12:39.017Z,51.291187
2022-09-18T09:13:39.008Z,51.291161
2022-09-18T09:14:56.792Z,51.291145
2022-09-18T09:15:40.026Z,51.291191
2022-09-18T09:16:39.004Z,51.291183
2022-09-18T09:17:39.041Z,51.291279
2022-09-18T09:18:38.945Z,51.291382
2022-09-18T09:19:38.940Z,51.291161
2022-09-18T09:20:39.064Z,51.291126
2022-09-18T09:21:38.903Z,51.291206
2022-09-18T09:22:38.910Z,51.291374
2022-09-18T09:23:38.882Z,51.291134
2022-09-18T09:24:38.890Z,51.291153
2022-09-18T09:25:38.865Z,51.291046
2022-09-18T09:26:38.872Z,51.291119
2022-09-18T09:27:38.844Z,51.291237
2022-09-18T09:28:38.821Z,51.291039
2022-09-18T09:29:38.819Z,51.291149
2022-09-18T09:30:38.801Z,51.291180
2022-09-18T09:31:38.865Z,51.291145
2022-09-18T09:32:38.777Z,51.291126
2022-09-18T09:33:38.841Z,51.291325
2022-09-18T09:34:38.753Z,51.291393
2022-09-18T09:35:38.751Z,51.291183
2022-09-18T09:36:38.782Z,51.291149
2022-09-18T09:37:38.728Z,51.291183
2022-09-18T09:38:38.720Z,51.291130
2022-09-18T09:39:38.701Z,51.291180
2022-09-18T09:40:38.750Z,51.291382
2022-09-18T09:41:38.712Z,51.291328
2022-09-18T09:42:38.669Z,51.291256
2022-09-18T09:43:38.646Z,51.291214
2022-09-18T09:44:38.654Z,51.291275
2022-09-18T09:45:38.630Z,51.291302
2022-09-18T09:46:38.668Z,51.291309
2022-09-18T09:47:38.637Z,51.291294
2022-09-18T09:48:38.590Z,51.291412
2022-09-18T09:49:38.655Z,51.291283
2022-09-18T09:50:39.056Z,51.291115
2022-09-18T09:51:38.566Z,51.291134
2022-09-18T09:52:38.578Z,51.291023
2022-09-18T09:53:38.549Z,51.291206
2022-09-18T09:54:38.543Z,51.291241
2022-09-18T09:55:38.523Z,51.291191
2022-09-18T09:56:38.509Z,51.291271
2022-09-18T09:57:38.535Z,51.291222
2022-09-18T09:58:38.480Z,51.291210
2022-09-18T09:59:38.871Z,51.291191
2022-09-18T10:00:38.494Z,51.291229
2022-09-18T10:01:38.456Z,51.291321
2022-09-18T10:02:38.485Z,51.291275
2022-09-18T10:03:38.414Z,51.291164
2022-09-18T10:04:38.419Z,51.291122
2022-09-18T10:05:38.485Z,51.291122
2022-09-18T10:06:38.390Z,51.291149
2022-09-18T10:07:38.388Z,51.291050
2022-09-18T10:08:38.385Z,51.291203
2022-09-18T11:57:43.263Z,51.291348
2022-09-18T11:58:43.202Z,51.291126
2022-09-18T11:59:43.204Z,51.291134
2022-09-18T12:00:43.178Z,51.291035
2022-09-18T12:01:43.185Z,51.291195
2022-09-18T12:02:43.286Z,51.291168
2022-09-18T12:03:43.614Z,51.291142
2022-09-18T12:04:43.122Z,51.291252
2022-09-18T12:05:43.142Z,51.291069
2022-09-18T12:06:43.125Z,51.291103
2022-09-18T12:07:42.653Z,51.290813
2022-09-18T12:08:41.815Z,51.291286
2022-09-18T12:09:41.723Z,51.291363
2022-09-18T12:10:41.706Z,51.291180
2022-09-18T12:11:41.699Z,51.291153
2022-09-18T12:12:41.747Z,51.291237
2022-09-18T12:13:41.708Z,51.291271
2022-09-18T12:14:41.698Z,51.291183
2022-09-18T12:15:41.675Z,51.291470
2022-09-18T12:16:41.697Z,51.291172
2022-09-18T12:17:41.620Z,51.291199
2022-09-18T12:18:41.637Z,51.291157
2022-09-18T12:19:41.627Z,51.291294
2022-09-18T12:20:41.603Z,51.291298
2022-09-18T12:21:41.552Z,51.291042
2022-09-18T12:22:41.549Z,51.291157
2022-09-18T12:23:41.533Z,51.291027
2022-09-18T12:24:41.565Z,51.291100
2022-09-18T12:25:41.544Z,51.291183
2022-09-18T12:26:41.509Z,51.291031
2022-09-18T12:27:41.588Z,51.290852
2022-09-18T12:28:41.563Z,51.290981
2022-09-18T12:29:41.488Z,51.291206
2022-09-18T12:30:41.517Z,51.291389
2022-09-18T12:31:41.487Z,51.291260
2022-09-18T12:32:41.425Z,51.291359
2022-09-18T12:33:41.447Z,51.291245
2022-09-18T12:34:41.458Z,51.291317
2022-09-18T12:35:41.389Z,51.291286
2022-09-18T12:36:41.422Z,51.291088
2022-09-18T12:37:41.361Z,51.291119
2022-09-18T12:38:41.371Z,51.291100
2022-09-18T12:39:42.070Z,51.291222
2022-09-18T12:40:42.004Z,51.291111
2022-09-18T12:41:41.986Z,51.291145
2022-09-18T12:42:41.980Z,51.291191
2022-09-18T12:43:41.985Z,51.291145
2022-09-18T12:44:42.078Z,51.291199
2022-09-18T12:45:42.037Z,51.291283
2022-09-18T12:46:41.909Z,51.291138
2022-09-18T12:47:43.405Z,51.291039
2022-09-18T12:48:42.091Z,51.291065
2022-09-18T12:50:17.071Z,51.291191
2022-09-18T12:50:41.850Z,51.291229
2022-09-18T12:51:41.885Z,51.291077
2022-09-18T12:53:00.287Z,51.291115
2022-09-18T12:53:41.815Z,51.291142
2022-09-18T12:54:41.815Z,51.291168
2022-09-18T12:55:41.802Z,51.291031
2022-09-18T12:56:41.821Z,51.291042
2022-09-18T12:57:41.768Z,51.291126
2022-09-18T12:58:41.753Z,51.290676
2022-09-18T12:59:41.738Z,51.290771
2022-09-18T13:00:41.876Z,51.290764
2022-09-18T13:01:41.708Z,51.290958
2022-09-18T13:02:41.726Z,51.291080
2022-09-18T13:03:41.692Z,51.291058
2022-09-18T13:04:41.686Z,51.291084
2022-09-18T13:05:41.740Z,51.291275
2022-09-18T13:06:41.648Z,51.291271
2022-09-18T13:07:41.663Z,51.291309
2022-09-18T13:08:41.668Z,51.291252
2022-09-18T13:09:41.652Z,51.291084
2022-09-18T13:10:41.637Z,51.291126
2022-09-18T13:11:41.576Z,51.291122
2022-09-18T13:12:41.606Z,51.291080